Date,TemperatureHighF,TemperatureAvgF,TemperatureLowF,DewpointHighF,DewpointAvgF,DewpointLowF,HumidityHigh,HumidityAvg,HumidityLow,PressureMaxIn,PressureMinIn,WindSpeedMaxMPH,WindSpeedAvgMPH,GustSpeedMaxMPH,PrecipitationSumIn
2013-1-1,42.4,41.3,40.5,30.3,28.0,25.6,65,60,56,29.94,29.87,27,13,27,0.00
2013-1-2,41.2,40.0,29.7,27.2,25.5,13.9,58,57,38,30.22,29.88,18,12,18,0.00
2013-1-3,37.4,32.8,28.8,19.8,17.6,15.7,63,53,41,30.24,30.10,19,7,21,0.00
2013-1-4,41.2,37.0,33.3,24.2,22.0,19.6,62,55,46,30.13,29.98,30,13,31,0.00
2013-1-5,47.5,40.1,34.7,25.3,22.3,19.3,57,49,38,30.32,30.04,21,8,24,0.00
2013-1-6,49.1,42.1,36.0,33.5,29.0,23.9,83,60,44,30.27,30.00,21,7,24,0.00
2013-1-7,50.4,44.4,40.1,30.7,25.3,19.6,65,49,33,30.43,30.08,17,5,18,0.00
2013-1-8,51.4,43.3,36.3,33.1,30.1,25.1,71,61,48,30.48,30.38,14,5,14,0.00
2013-1-9,50.9,46.4,40.8,39.1,34.6,30.5,72,64,56,30.43,30.16,30,5,30,0.00
2013-1-10,52.3,47.2,43.3,34.1,25.3,19.5,60,44,31,30.59,30.27,25,6,25,0.00
2013-1-11,48.0,44.4,40.5,45.8,33.4,23.2,92,67,46,30.59,30.13,9,3,9,0.40
2013-1-12,50.7,47.6,46.0,46.3,44.4,42.7,93,89,83,30.21,30.10,7,2,7,0.04
2013-1-13,51.3,48.0,44.8,49.3,45.2,42.9,94,90,84,30.20,30.04,8,2,8,0.00
2013-1-14,59.0,52.8,43.5,53.4,44.4,29.1,96,76,45,30.34,29.94,16,4,16,0.07
2013-1-15,43.5,41.2,38.5,37.4,31.3,26.7,83,69,56,30.38,30.26,6,2,6,0.12
2013-1-16,39.7,37.2,34.9,37.1,33.9,30.1,91,88,72,30.26,29.83,21,4,21,12.65
2013-1-17,48.0,42.7,38.8,35.7,30.0,24.5,87,62,49,30.12,29.94,20,6,20,0.00
2013-1-18,39.2,33.2,29.7,25.2,13.0,2.5,61,45,27,30.53,30.03,21,5,21,0.00
2013-1-19,53.4,42.4,31.3,28.6,23.5,12.5,66,49,35,30.45,29.96,24,9,24,0.00
2013-1-20,56.3,45.6,34.0,30.6,23.9,7.5,62,45,17,30.08,29.72,41,11,42,0.02
2013-1-21,35.2,32.7,29.8,18.2,13.3,8.4,57,45,37,30.13,29.86,22,6,22,0.00
2013-1-22,30.9,24.0,17.1,16.8,3.1,-7.6,65,42,25,30.25,29.86,38,13,38,0.00
2013-1-23,24.1,18.9,14.4,2.9,-1.1,-5.7,53,42,30,30.31,30.19,26,10,26,0.00
2013-1-24,29.3,22.0,17.8,5.2,1.0,-6.6,55,42,24,30.43,30.17,30,8,30,0.00
2013-1-25,28.4,21.8,16.3,17.9,7.2,0.3,79,54,39,30.47,30.10,24,7,24,0.00
2013-1-26,31.5,25.1,20.5,16.5,11.7,7.0,76,58,42,30.43,30.08,24,7,24,0.00
2013-1-27,39.0,30.6,23.0,14.5,11.8,7.3,65,48,32,30.58,30.42,17,6,17,0.00
2013-1-28,37.2,33.8,32.9,34.4,18.4,12.7,90,56,44,30.53,30.04,16,3,16,0.04
2013-1-29,52.7,44.4,37.2,43.9,39.3,34.1,90,83,64,30.22,30.03,14,4,14,0.02
2013-1-30,58.5,50.2,42.1,53.9,46.9,38.3,95,88,76,30.13,29.39,13,3,13,0.02
2013-1-31,61.0,47.1,32.0,58.2,32.0,9.4,94,60,33,29.83,29.08,49,21,49,2.02